sensor_id;sensor_type;location;lat;lon;timestamp;temperature;humidity
70366;DHT22;57787;48.216;12.396;2023-03-26T00:00:40;6.20;77.90
70366;DHT22;57787;48.216;12.396;2023-03-26T00:03:10;6.10;78.20
70366;DHT22;57787;48.216;12.396;2023-03-26T00:05:39;6.00;78.30
70366;DHT22;57787;48.216;12.396;2023-03-26T00:08:07;5.90;78.40
70366;DHT22;57787;48.216;12.396;2023-03-26T00:10:35;5.80;78.40
70366;DHT22;57787;48.216;12.396;2023-03-26T00:13:02;5.80;78.90
70366;DHT22;57787;48.216;12.396;2023-03-26T00:15:30;5.70;79.00
70366;DHT22;57787;48.216;12.396;2023-03-26T00:17:57;5.70;79.50
70366;DHT22;57787;48.216;12.396;2023-03-26T00:20:24;5.70;79.20
70366;DHT22;57787;48.216;12.396;2023-03-26T00:22:53;5.70;79.40
70366;DHT22;57787;48.216;12.396;2023-03-26T00:25:21;5.70;79.70
70366;DHT22;57787;48.216;12.396;2023-03-26T00:27:49;5.70;79.60
70366;DHT22;57787;48.216;12.396;2023-03-26T00:30:16;5.70;80.20
70366;DHT22;57787;48.216;12.396;2023-03-26T00:32:43;5.60;80.40
70366;DHT22;57787;48.216;12.396;2023-03-26T00:35:19;5.60;80.00
70366;DHT22;57787;48.216;12.396;2023-03-26T00:37:46;5.60;80.40
70366;DHT22;57787;48.216;12.396;2023-03-26T00:40:13;5.70;80.50
70366;DHT22;57787;48.216;12.396;2023-03-26T00:42:41;5.80;80.60
70366;DHT22;57787;48.216;12.396;2023-03-26T00:45:08;5.80;80.10
70366;DHT22;57787;48.216;12.396;2023-03-26T00:47:36;5.80;80.10
70366;DHT22;57787;48.216;12.396;2023-03-26T00:50:03;5.90;80.20
70366;DHT22;57787;48.216;12.396;2023-03-26T00:52:30;5.90;79.90
70366;DHT22;57787;48.216;12.396;2023-03-26T00:54:57;5.90;80.60
70366;DHT22;57787;48.216;12.396;2023-03-26T00:57:24;6.00;80.20
70366;DHT22;57787;48.216;12.396;2023-03-26T01:00:05;6.00;80.30
70366;DHT22;57787;48.216;12.396;2023-03-26T01:02:35;6.00;80.50
70366;DHT22;57787;48.216;12.396;2023-03-26T01:05:25;6.00;80.60
70366;DHT22;57787;48.216;12.396;2023-03-26T01:07:51;6.10;80.70
70366;DHT22;57787;48.216;12.396;2023-03-26T01:10:19;6.00;80.10
70366;DHT22;57787;48.216;12.396;2023-03-26T01:12:48;6.00;79.80
70366;DHT22;57787;48.216;12.396;2023-03-26T01:15:15;6.00;80.00
70366;DHT22;57787;48.216;12.396;2023-03-26T01:17:42;5.90;79.60
70366;DHT22;57787;48.216;12.396;2023-03-26T01:20:13;5.80;79.90
70366;DHT22;57787;48.216;12.396;2023-03-26T01:22:46;5.70;79.80
70366;DHT22;57787;48.216;12.396;2023-03-26T01:25:15;5.70;79.80
70366;DHT22;57787;48.216;12.396;2023-03-26T01:27:49;5.60;80.20
70366;DHT22;57787;48.216;12.396;2023-03-26T01:30:23;5.50;80.20
70366;DHT22;57787;48.216;12.396;2023-03-26T01:35:30;5.30;80.60
70366;DHT22;57787;48.216;12.396;2023-03-26T01:38:09;5.30;80.30
70366;DHT22;57787;48.216;12.396;2023-03-26T01:40:45;5.30;81.00
70366;DHT22;57787;48.216;12.396;2023-03-26T01:43:30;5.30;81.00
70366;DHT22;57787;48.216;12.396;2023-03-26T01:45:59;5.30;80.90
70366;DHT22;57787;48.216;12.396;2023-03-26T01:48:30;5.30;81.40
70366;DHT22;57787;48.216;12.396;2023-03-26T01:50:59;5.40;81.50
70366;DHT22;57787;48.216;12.396;2023-03-26T01:53:26;5.40;82.10
70366;DHT22;57787;48.216;12.396;2023-03-26T01:55:58;5.40;81.50
70366;DHT22;57787;48.216;12.396;2023-03-26T01:58:30;5.40;81.40
70366;DHT22;57787;48.216;12.396;2023-03-26T02:03:31;5.40;81.80
70366;DHT22;57787;48.216;12.396;2023-03-26T02:06:05;5.40;81.30
70366;DHT22;57787;48.216;12.396;2023-03-26T02:08:43;5.40;81.90
70366;DHT22;57787;48.216;12.396;2023-03-26T02:11:12;5.30;81.60
70366;DHT22;57787;48.216;12.396;2023-03-26T02:13:43;5.40;81.90
70366;DHT22;57787;48.216;12.396;2023-03-26T02:16:12;5.30;81.70
70366;DHT22;57787;48.216;12.396;2023-03-26T02:18:43;5.30;81.60
70366;DHT22;57787;48.216;12.396;2023-03-26T02:21:15;5.30;82.20
70366;DHT22;57787;48.216;12.396;2023-03-26T02:23:47;5.30;81.90
70366;DHT22;57787;48.216;12.396;2023-03-26T02:26:15;5.30;82.30
70366;DHT22;57787;48.216;12.396;2023-03-26T02:28:42;5.30;81.80
70366;DHT22;57787;48.216;12.396;2023-03-26T02:31:09;5.30;81.90
70366;DHT22;57787;48.216;12.396;2023-03-26T02:33:36;5.30;81.90
70366;DHT22;57787;48.216;12.396;2023-03-26T02:36:06;5.30;81.40
70366;DHT22;57787;48.216;12.396;2023-03-26T02:38:34;5.30;81.70
70366;DHT22;57787;48.216;12.396;2023-03-26T02:41:01;5.20;81.70
70366;DHT22;57787;48.216;12.396;2023-03-26T02:43:29;5.10;81.50
70366;DHT22;57787;48.216;12.396;2023-03-26T02:45:56;5.20;82.00
70366;DHT22;57787;48.216;12.396;2023-03-26T02:48:23;5.10;82.20
70366;DHT22;57787;48.216;12.396;2023-03-26T02:50:50;5.00;81.90
70366;DHT22;57787;48.216;12.396;2023-03-26T02:53:20;5.00;82.00
70366;DHT22;57787;48.216;12.396;2023-03-26T02:55:49;5.00;82.20
70366;DHT22;57787;48.216;12.396;2023-03-26T02:58:16;4.90;82.00
70366;DHT22;57787;48.216;12.396;2023-03-26T03:00:43;5.00;82.70
70366;DHT22;57787;48.216;12.396;2023-03-26T03:03:12;4.90;82.50
70366;DHT22;57787;48.216;12.396;2023-03-26T03:05:40;4.90;82.30
70366;DHT22;57787;48.216;12.396;2023-03-26T03:08:08;4.80;82.50
70366;DHT22;57787;48.216;12.396;2023-03-26T03:10:35;4.80;82.60
70366;DHT22;57787;48.216;12.396;2023-03-26T03:13:03;4.80;83.00
70366;DHT22;57787;48.216;12.396;2023-03-26T03:15:35;4.70;83.10
70366;DHT22;57787;48.216;12.396;2023-03-26T03:18:02;4.80;83.80
70366;DHT22;57787;48.216;12.396;2023-03-26T03:20:29;4.80;84.20
70366;DHT22;57787;48.216;12.396;2023-03-26T03:22:56;4.80;83.50
70366;DHT22;57787;48.216;12.396;2023-03-26T03:25:26;4.80;83.90
70366;DHT22;57787;48.216;12.396;2023-03-26T03:27:53;4.80;83.60
70366;DHT22;57787;48.216;12.396;2023-03-26T03:30:20;4.70;83.40
70366;DHT22;57787;48.216;12.396;2023-03-26T03:32:47;4.80;83.80
70366;DHT22;57787;48.216;12.396;2023-03-26T03:35:14;4.70;83.90
70366;DHT22;57787;48.216;12.396;2023-03-26T03:37:41;4.80;83.90
70366;DHT22;57787;48.216;12.396;2023-03-26T03:40:08;4.70;83.80
70366;DHT22;57787;48.216;12.396;2023-03-26T03:42:36;4.70;84.00
70366;DHT22;57787;48.216;12.396;2023-03-26T03:45:05;4.70;84.00
70366;DHT22;57787;48.216;12.396;2023-03-26T03:47:32;4.70;83.60
70366;DHT22;57787;48.216;12.396;2023-03-26T03:49:59;4.70;83.60
70366;DHT22;57787;48.216;12.396;2023-03-26T03:52:26;4.60;83.90
70366;DHT22;57787;48.216;12.396;2023-03-26T03:54:54;4.70;83.80
70366;DHT22;57787;48.216;12.396;2023-03-26T03:57:22;4.70;83.60
70366;DHT22;57787;48.216;12.396;2023-03-26T03:59:49;4.60;83.50
70366;DHT22;57787;48.216;12.396;2023-03-26T04:02:15;4.60;83.60
70366;DHT22;57787;48.216;12.396;2023-03-26T04:04:52;4.60;83.90
70366;DHT22;57787;48.216;12.396;2023-03-26T04:07:19;4.60;83.30
70366;DHT22;57787;48.216;12.396;2023-03-26T04:09:46;4.50;83.40
70366;DHT22;57787;48.216;12.396;2023-03-26T04:12:13;4.50;83.60
70366;DHT22;57787;48.216;12.396;2023-03-26T04:14:40;4.50;83.80
70366;DHT22;57787;48.216;12.396;2023-03-26T04:17:08;4.40;83.80
70366;DHT22;57787;48.216;12.396;2023-03-26T04:19:35;4.50;83.80
70366;DHT22;57787;48.216;12.396;2023-03-26T04:22:06;4.50;83.90
70366;DHT22;57787;48.216;12.396;2023-03-26T04:24:32;4.40;83.90
70366;DHT22;57787;48.216;12.396;2023-03-26T04:26:59;4.50;84.00
70366;DHT22;57787;48.216;12.396;2023-03-26T04:29:30;4.50;84.20
70366;DHT22;57787;48.216;12.396;2023-03-26T04:32:00;4.40;84.30
70366;DHT22;57787;48.216;12.396;2023-03-26T04:34:32;4.50;84.30
70366;DHT22;57787;48.216;12.396;2023-03-26T04:37:04;4.50;84.20
70366;DHT22;57787;48.216;12.396;2023-03-26T04:39:30;4.50;84.60
70366;DHT22;57787;48.216;12.396;2023-03-26T04:41:59;4.50;84.60
70366;DHT22;57787;48.216;12.396;2023-03-26T04:44:26;4.60;84.50
70366;DHT22;57787;48.216;12.396;2023-03-26T04:46:56;4.60;84.70
70366;DHT22;57787;48.216;12.396;2023-03-26T04:49:22;4.60;84.60
70366;DHT22;57787;48.216;12.396;2023-03-26T04:51:49;4.60;84.70
70366;DHT22;57787;48.216;12.396;2023-03-26T04:54:16;4.70;84.70
70366;DHT22;57787;48.216;12.396;2023-03-26T04:56:48;4.70;84.80
70366;DHT22;57787;48.216;12.396;2023-03-26T04:59:21;4.80;84.40
70366;DHT22;57787;48.216;12.396;2023-03-26T05:01:52;4.80;84.00
70366;DHT22;57787;48.216;12.396;2023-03-26T05:04:19;4.90;84.40
70366;DHT22;57787;48.216;12.396;2023-03-26T05:06:46;4.90;84.80
70366;DHT22;57787;48.216;12.396;2023-03-26T05:09:13;5.00;84.20
70366;DHT22;57787;48.216;12.396;2023-03-26T05:11:43;5.00;84.40
70366;DHT22;57787;48.216;12.396;2023-03-26T05:14:11;5.10;84.20
70366;DHT22;57787;48.216;12.396;2023-03-26T05:16:37;5.10;84.00
70366;DHT22;57787;48.216;12.396;2023-03-26T05:19:05;5.20;84.00
70366;DHT22;57787;48.216;12.396;2023-03-26T05:21:33;5.30;84.10
70366;DHT22;57787;48.216;12.396;2023-03-26T05:24:01;5.30;84.10
70366;DHT22;57787;48.216;12.396;2023-03-26T05:26:28;5.40;83.80
70366;DHT22;57787;48.216;12.396;2023-03-26T05:28:57;5.40;83.80
70366;DHT22;57787;48.216;12.396;2023-03-26T05:31:26;5.50;83.70
70366;DHT22;57787;48.216;12.396;2023-03-26T05:33:53;5.50;83.70
70366;DHT22;57787;48.216;12.396;2023-03-26T05:36:22;5.60;83.60
70366;DHT22;57787;48.216;12.396;2023-03-26T05:38:49;5.60;83.60
70366;DHT22;57787;48.216;12.396;2023-03-26T05:41:17;5.70;83.60
70366;DHT22;57787;48.216;12.396;2023-03-26T05:43:44;5.80;83.50
70366;DHT22;57787;48.216;12.396;2023-03-26T05:46:14;5.80;83.40
70366;DHT22;57787;48.216;12.396;2023-03-26T05:48:41;5.90;83.30
70366;DHT22;57787;48.216;12.396;2023-03-26T05:51:10;6.00;83.20
70366;DHT22;57787;48.216;12.396;2023-03-26T05:53:38;6.10;83.10
70366;DHT22;57787;48.216;12.396;2023-03-26T05:56:05;6.10;82.90
70366;DHT22;57787;48.216;12.396;2023-03-26T05:58:33;6.20;82.80
70366;DHT22;57787;48.216;12.396;2023-03-26T06:01:01;6.30;82.80
70366;DHT22;57787;48.216;12.396;2023-03-26T06:03:36;6.30;82.70
70366;DHT22;57787;48.216;12.396;2023-03-26T06:06:07;6.40;82.60
70366;DHT22;57787;48.216;12.396;2023-03-26T06:08:35;6.50;82.50
70366;DHT22;57787;48.216;12.396;2023-03-26T06:11:03;6.60;82.30
70366;DHT22;57787;48.216;12.396;2023-03-26T06:13:30;6.70;82.00
70366;DHT22;57787;48.216;12.396;2023-03-26T06:15:57;6.80;81.90
70366;DHT22;57787;48.216;12.396;2023-03-26T06:18:24;6.80;81.40
70366;DHT22;57787;48.216;12.396;2023-03-26T06:20:51;7.00;81.40
70366;DHT22;57787;48.216;12.396;2023-03-26T06:23:20;7.10;80.90
70366;DHT22;57787;48.216;12.396;2023-03-26T06:25:49;7.20;80.90
70366;DHT22;57787;48.216;12.396;2023-03-26T06:28:16;7.30;80.70
70366;DHT22;57787;48.216;12.396;2023-03-26T06:30:46;7.40;80.10
70366;DHT22;57787;48.216;12.396;2023-03-26T06:33:13;7.60;80.00
70366;DHT22;57787;48.216;12.396;2023-03-26T06:35:40;7.70;80.00
70366;DHT22;57787;48.216;12.396;2023-03-26T06:38:11;7.80;79.80
70366;DHT22;57787;48.216;12.396;2023-03-26T06:40:37;7.90;79.40
70366;DHT22;57787;48.216;12.396;2023-03-26T06:43:04;8.00;79.20
70366;DHT22;57787;48.216;12.396;2023-03-26T06:45:35;8.00;78.80
70366;DHT22;57787;48.216;12.396;2023-03-26T06:48:02;8.00;78.50
70366;DHT22;57787;48.216;12.396;2023-03-26T06:50:30;8.00;78.20
70366;DHT22;57787;48.216;12.396;2023-03-26T06:52:58;8.10;78.20
70366;DHT22;57787;48.216;12.396;2023-03-26T06:55:26;8.10;77.90
70366;DHT22;57787;48.216;12.396;2023-03-26T06:57:53;8.10;78.00
70366;DHT22;57787;48.216;12.396;2023-03-26T07:00:20;8.10;78.00
70366;DHT22;57787;48.216;12.396;2023-03-26T07:02:47;8.20;78.00
70366;DHT22;57787;48.216;12.396;2023-03-26T07:05:19;8.20;78.40
70366;DHT22;57787;48.216;12.396;2023-03-26T07:07:49;8.30;77.90
70366;DHT22;57787;48.216;12.396;2023-03-26T07:10:16;8.30;77.80
70366;DHT22;57787;48.216;12.396;2023-03-26T07:12:44;8.30;77.60
70366;DHT22;57787;48.216;12.396;2023-03-26T07:15:11;8.40;77.70
70366;DHT22;57787;48.216;12.396;2023-03-26T07:17:40;8.50;77.40
70366;DHT22;57787;48.216;12.396;2023-03-26T07:20:07;8.50;76.80
70366;DHT22;57787;48.216;12.396;2023-03-26T07:22:34;8.60;76.60
70366;DHT22;57787;48.216;12.396;2023-03-26T07:25:03;8.70;76.80
70366;DHT22;57787;48.216;12.396;2023-03-26T07:30:18;8.90;76.30
70366;DHT22;57787;48.216;12.396;2023-03-26T07:32:54;9.00;75.00
70366;DHT22;57787;48.216;12.396;2023-03-26T07:35:48;9.10;74.70
70366;DHT22;57787;48.216;12.396;2023-03-26T07:43:24;9.50;74.20
70366;DHT22;57787;48.216;12.396;2023-03-26T07:45:54;9.50;74.40
70366;DHT22;57787;48.216;12.396;2023-03-26T07:48:24;9.60;74.60
70366;DHT22;57787;48.216;12.396;2023-03-26T07:50:53;9.70;73.70
70366;DHT22;57787;48.216;12.396;2023-03-26T07:53:21;9.80;74.00
70366;DHT22;57787;48.216;12.396;2023-03-26T07:55:52;9.90;73.60
70366;DHT22;57787;48.216;12.396;2023-03-26T07:58:25;9.90;73.50
70366;DHT22;57787;48.216;12.396;2023-03-26T08:00:58;10.00;72.90
70366;DHT22;57787;48.216;12.396;2023-03-26T08:06:46;10.20;72.00
70366;DHT22;57787;48.216;12.396;2023-03-26T08:14:19;10.40;71.70
70366;DHT22;57787;48.216;12.396;2023-03-26T08:16:52;10.50;70.90
70366;DHT22;57787;48.216;12.396;2023-03-26T08:21:57;10.60;70.80
70366;DHT22;57787;48.216;12.396;2023-03-26T08:29:41;10.80;70.00
70366;DHT22;57787;48.216;12.396;2023-03-26T08:32:16;10.90;69.30
70366;DHT22;57787;48.216;12.396;2023-03-26T08:34:43;10.90;67.80
70366;DHT22;57787;48.216;12.396;2023-03-26T08:37:10;10.90;67.00
70366;DHT22;57787;48.216;12.396;2023-03-26T08:39:39;10.90;66.50
70366;DHT22;57787;48.216;12.396;2023-03-26T08:50:32;11.00;66.70
70366;DHT22;57787;48.216;12.396;2023-03-26T08:55:54;11.20;66.70
70366;DHT22;57787;48.216;12.396;2023-03-26T09:03:29;11.40;65.30
70366;DHT22;57787;48.216;12.396;2023-03-26T09:06:11;11.40;65.00
70366;DHT22;57787;48.216;12.396;2023-03-26T09:11:49;11.30;65.00
70366;DHT22;57787;48.216;12.396;2023-03-26T09:25:05;11.30;65.60
70366;DHT22;57787;48.216;12.396;2023-03-26T09:27:38;11.30;66.20
70366;DHT22;57787;48.216;12.396;2023-03-26T09:30:17;11.30;65.40
70366;DHT22;57787;48.216;12.396;2023-03-26T09:38:17;11.30;63.40
70366;DHT22;57787;48.216;12.396;2023-03-26T09:43:36;11.70;65.20
70366;DHT22;57787;48.216;12.396;2023-03-26T09:46:10;11.70;63.80
70366;DHT22;57787;48.216;12.396;2023-03-26T09:54:02;12.00;65.30
70366;DHT22;57787;48.216;12.396;2023-03-26T10:26:11;11.30;69.40
70366;DHT22;57787;48.216;12.396;2023-03-26T10:34:17;11.10;70.80
70366;DHT22;57787;48.216;12.396;2023-03-26T10:39:49;11.00;73.20
70366;DHT22;57787;48.216;12.396;2023-03-26T10:50:27;11.10;72.50
70366;DHT22;57787;48.216;12.396;2023-03-26T10:52:58;11.30;72.70
70366;DHT22;57787;48.216;12.396;2023-03-26T10:55:30;11.40;71.80
70366;DHT22;57787;48.216;12.396;2023-03-26T10:57:59;11.50;72.00
70366;DHT22;57787;48.216;12.396;2023-03-26T11:00:28;11.60;71.20
70366;DHT22;57787;48.216;12.396;2023-03-26T11:14:24;11.20;66.70
70366;DHT22;57787;48.216;12.396;2023-03-26T11:19:18;11.20;68.00
70366;DHT22;57787;48.216;12.396;2023-03-26T11:27:08;11.20;68.80
70366;DHT22;57787;48.216;12.396;2023-03-26T11:29:48;11.20;70.10
70366;DHT22;57787;48.216;12.396;2023-03-26T11:32:25;11.30;69.80
70366;DHT22;57787;48.216;12.396;2023-03-26T11:34:58;11.30;71.50
70366;DHT22;57787;48.216;12.396;2023-03-26T11:37:34;11.30;72.40
70366;DHT22;57787;48.216;12.396;2023-03-26T11:40:08;11.20;72.70
70366;DHT22;57787;48.216;12.396;2023-03-26T11:42:36;11.20;73.00
70366;DHT22;57787;48.216;12.396;2023-03-26T11:45:04;11.00;71.50
70366;DHT22;57787;48.216;12.396;2023-03-26T11:47:39;10.90;72.30
70366;DHT22;57787;48.216;12.396;2023-03-26T11:50:13;10.90;74.00
70366;DHT22;57787;48.216;12.396;2023-03-26T11:52:41;11.00;74.60
70366;DHT22;57787;48.216;12.396;2023-03-26T11:55:10;11.00;74.90
70366;DHT22;57787;48.216;12.396;2023-03-26T11:57:36;11.10;75.30
70366;DHT22;57787;48.216;12.396;2023-03-26T12:00:15;11.10;74.70
70366;DHT22;57787;48.216;12.396;2023-03-26T12:02:49;11.30;74.50
70366;DHT22;57787;48.216;12.396;2023-03-26T12:05:23;11.30;74.30
70366;DHT22;57787;48.216;12.396;2023-03-26T12:07:53;11.50;74.80
70366;DHT22;57787;48.216;12.396;2023-03-26T12:10:40;11.60;74.10
70366;DHT22;57787;48.216;12.396;2023-03-26T12:15:57;11.80;73.90
70366;DHT22;57787;48.216;12.396;2023-03-26T12:18:27;11.90;74.20
70366;DHT22;57787;48.216;12.396;2023-03-26T12:21:16;11.90;73.00
70366;DHT22;57787;48.216;12.396;2023-03-26T12:23:49;11.80;72.20
70366;DHT22;57787;48.216;12.396;2023-03-26T12:26:18;11.80;72.80
70366;DHT22;57787;48.216;12.396;2023-03-26T12:28:49;11.80;73.50
70366;DHT22;57787;48.216;12.396;2023-03-26T12:31:17;11.90;74.00
70366;DHT22;57787;48.216;12.396;2023-03-26T12:36:32;11.80;71.80
70366;DHT22;57787;48.216;12.396;2023-03-26T12:39:01;11.80;73.30
70366;DHT22;57787;48.216;12.396;2023-03-26T12:42:22;11.70;73.20
70366;DHT22;57787;48.216;12.396;2023-03-26T12:45:12;11.70;73.60
70366;DHT22;57787;48.216;12.396;2023-03-26T12:47:39;11.70;74.60
70366;DHT22;57787;48.216;12.396;2023-03-26T12:50:28;11.80;74.70
70366;DHT22;57787;48.216;12.396;2023-03-26T12:53:06;11.80;74.40
70366;DHT22;57787;48.216;12.396;2023-03-26T13:00:53;12.10;74.60
70366;DHT22;57787;48.216;12.396;2023-03-26T13:06:36;12.30;73.50
70366;DHT22;57787;48.216;12.396;2023-03-26T13:11:29;12.30;72.10
70366;DHT22;57787;48.216;12.396;2023-03-26T13:19:05;12.30;71.50
70366;DHT22;57787;48.216;12.396;2023-03-26T13:21:48;12.30;71.00
70366;DHT22;57787;48.216;12.396;2023-03-26T13:24:26;12.30;71.40
70366;DHT22;57787;48.216;12.396;2023-03-26T13:42:58;12.40;71.00
70366;DHT22;57787;48.216;12.396;2023-03-26T13:45:45;12.40;70.40
70366;DHT22;57787;48.216;12.396;2023-03-26T13:48:16;12.50;70.70
70366;DHT22;57787;48.216;12.396;2023-03-26T13:50:47;12.50;70.80
70366;DHT22;57787;48.216;12.396;2023-03-26T13:53:24;12.50;70.70
70366;DHT22;57787;48.216;12.396;2023-03-26T13:55:54;12.60;71.00
70366;DHT22;57787;48.216;12.396;2023-03-26T14:06:04;12.60;70.50
70366;DHT22;57787;48.216;12.396;2023-03-26T14:08:52;12.60;70.50
70366;DHT22;57787;48.216;12.396;2023-03-26T14:11:37;12.60;70.20
70366;DHT22;57787;48.216;12.396;2023-03-26T14:14:16;12.50;71.10
70366;DHT22;57787;48.216;12.396;2023-03-26T14:16:46;12.50;72.00
70366;DHT22;57787;48.216;12.396;2023-03-26T14:27:14;12.00;74.70
70366;DHT22;57787;48.216;12.396;2023-03-26T14:40:27;11.60;69.10
70366;DHT22;57787;48.216;12.396;2023-03-26T14:50:39;11.00;72.50
70366;DHT22;57787;48.216;12.396;2023-03-26T14:53:15;10.90;74.30
70366;DHT22;57787;48.216;12.396;2023-03-26T15:12:41;10.20;74.30
70366;DHT22;57787;48.216;12.396;2023-03-26T15:18:06;9.90;74.80
70366;DHT22;57787;48.216;12.396;2023-03-26T15:23:19;9.90;77.10
70366;DHT22;57787;48.216;12.396;2023-03-26T15:26:10;9.90;77.80
70366;DHT22;57787;48.216;12.396;2023-03-26T15:29:02;9.90;77.30
70366;DHT22;57787;48.216;12.396;2023-03-26T15:39:30;9.90;76.90
70366;DHT22;57787;48.216;12.396;2023-03-26T15:44:33;9.90;76.40
70366;DHT22;57787;48.216;12.396;2023-03-26T15:48:05;9.90;76.10
70366;DHT22;57787;48.216;12.396;2023-03-26T15:50:19;9.90;76.00
70366;DHT22;57787;48.216;12.396;2023-03-26T15:55:39;9.90;76.70
70366;DHT22;57787;48.216;12.396;2023-03-26T15:58:25;9.80;76.50
70366;DHT22;57787;48.216;12.396;2023-03-26T16:04:28;9.80;76.90
70366;DHT22;57787;48.216;12.396;2023-03-26T16:09:17;9.70;77.00
70366;DHT22;57787;48.216;12.396;2023-03-26T16:11:58;9.70;77.10
70366;DHT22;57787;48.216;12.396;2023-03-26T16:17:02;9.60;77.20
70366;DHT22;57787;48.216;12.396;2023-03-26T16:25:28;9.40;77.00
70366;DHT22;57787;48.216;12.396;2023-03-26T16:30:43;9.30;77.30
70366;DHT22;57787;48.216;12.396;2023-03-26T16:33:15;9.30;77.70
70366;DHT22;57787;48.216;12.396;2023-03-26T16:38:25;9.20;77.40
70366;DHT22;57787;48.216;12.396;2023-03-26T16:40:55;9.20;77.90
70366;DHT22;57787;48.216;12.396;2023-03-26T16:56:59;8.80;78.60
70366;DHT22;57787;48.216;12.396;2023-03-26T17:02:53;8.70;79.20
70366;DHT22;57787;48.216;12.396;2023-03-26T17:05:34;8.60;79.40
70366;DHT22;57787;48.216;12.396;2023-03-26T17:08:10;8.60;79.70
70366;DHT22;57787;48.216;12.396;2023-03-26T17:10:46;8.60;80.00
70366;DHT22;57787;48.216;12.396;2023-03-26T17:21:25;8.50;79.70
70366;DHT22;57787;48.216;12.396;2023-03-26T17:24:17;8.50;79.50
70366;DHT22;57787;48.216;12.396;2023-03-26T17:26:52;8.40;79.90
70366;DHT22;57787;48.216;12.396;2023-03-26T17:31:59;8.40;79.60
70366;DHT22;57787;48.216;12.396;2023-03-26T17:36:57;8.40;79.00
70366;DHT22;57787;48.216;12.396;2023-03-26T17:42:18;8.30;79.70
70366;DHT22;57787;48.216;12.396;2023-03-26T17:47:22;8.20;79.80
70366;DHT22;57787;48.216;12.396;2023-03-26T17:49:53;8.20;80.60
70366;DHT22;57787;48.216;12.396;2023-03-26T17:54:55;8.00;80.50
70366;DHT22;57787;48.216;12.396;2023-03-26T17:57:44;8.00;80.70
70366;DHT22;57787;48.216;12.396;2023-03-26T18:00:13;8.00;80.60
70366;DHT22;57787;48.216;12.396;2023-03-26T18:02:43;8.00;80.80
70366;DHT22;57787;48.216;12.396;2023-03-26T18:05:13;7.90;80.40
70366;DHT22;57787;48.216;12.396;2023-03-26T18:13:04;7.90;79.30
70366;DHT22;57787;48.216;12.396;2023-03-26T18:15:38;7.90;78.00
70366;DHT22;57787;48.216;12.396;2023-03-26T18:18:12;7.90;77.40
70366;DHT22;57787;48.216;12.396;2023-03-26T18:20:43;8.00;76.50
70366;DHT22;57787;48.216;12.396;2023-03-26T18:23:29;8.00;76.40
70366;DHT22;57787;48.216;12.396;2023-03-26T18:28:53;8.00;76.40
70366;DHT22;57787;48.216;12.396;2023-03-26T18:31:24;8.00;76.80
70366;DHT22;57787;48.216;12.396;2023-03-26T18:33:55;8.00;76.90
70366;DHT22;57787;48.216;12.396;2023-03-26T18:36:25;8.00;76.90
70366;DHT22;57787;48.216;12.396;2023-03-26T18:38:59;8.00;77.00
70366;DHT22;57787;48.216;12.396;2023-03-26T18:41:32;8.00;77.10
70366;DHT22;57787;48.216;12.396;2023-03-26T18:44:03;7.90;77.30
70366;DHT22;57787;48.216;12.396;2023-03-26T18:46:33;7.90;76.70
70366;DHT22;57787;48.216;12.396;2023-03-26T18:49:00;7.90;77.10
70366;DHT22;57787;48.216;12.396;2023-03-26T18:51:30;7.80;77.20
70366;DHT22;57787;48.216;12.396;2023-03-26T18:54:06;7.80;77.70
70366;DHT22;57787;48.216;12.396;2023-03-26T18:56:34;7.80;78.10
70366;DHT22;57787;48.216;12.396;2023-03-26T18:59:02;7.80;78.30
70366;DHT22;57787;48.216;12.396;2023-03-26T19:01:30;7.80;78.60
70366;DHT22;57787;48.216;12.396;2023-03-26T19:03:58;7.80;78.30
70366;DHT22;57787;48.216;12.396;2023-03-26T19:06:28;7.80;78.40
70366;DHT22;57787;48.216;12.396;2023-03-26T19:08:55;7.80;78.80
70366;DHT22;57787;48.216;12.396;2023-03-26T19:11:22;7.80;78.40
70366;DHT22;57787;48.216;12.396;2023-03-26T19:14:04;7.80;78.60
70366;DHT22;57787;48.216;12.396;2023-03-26T19:16:32;7.80;78.50
70366;DHT22;57787;48.216;12.396;2023-03-26T19:19:01;7.80;78.60
70366;DHT22;57787;48.216;12.396;2023-03-26T19:21:30;7.80;78.10
70366;DHT22;57787;48.216;12.396;2023-03-26T19:23:57;7.80;78.00
70366;DHT22;57787;48.216;12.396;2023-03-26T19:26:24;7.80;78.10
70366;DHT22;57787;48.216;12.396;2023-03-26T19:28:51;7.70;77.60
70366;DHT22;57787;48.216;12.396;2023-03-26T19:31:26;7.70;77.20
70366;DHT22;57787;48.216;12.396;2023-03-26T19:34:01;7.70;76.80
70366;DHT22;57787;48.216;12.396;2023-03-26T19:36:30;7.70;76.30
70366;DHT22;57787;48.216;12.396;2023-03-26T19:41:34;7.60;76.80
70366;DHT22;57787;48.216;12.396;2023-03-26T19:44:10;7.60;76.50
70366;DHT22;57787;48.216;12.396;2023-03-26T19:46:38;7.50;76.90
70366;DHT22;57787;48.216;12.396;2023-03-26T19:49:24;7.50;77.30
70366;DHT22;57787;48.216;12.396;2023-03-26T19:52:04;7.40;77.20
70366;DHT22;57787;48.216;12.396;2023-03-26T19:54:59;7.40;77.00
70366;DHT22;57787;48.216;12.396;2023-03-26T19:57:26;7.40;77.40
70366;DHT22;57787;48.216;12.396;2023-03-26T19:59:53;7.40;77.50
70366;DHT22;57787;48.216;12.396;2023-03-26T20:02:21;7.30;77.80
70366;DHT22;57787;48.216;12.396;2023-03-26T20:04:50;7.30;78.00
70366;DHT22;57787;48.216;12.396;2023-03-26T20:07:21;7.30;78.00
70366;DHT22;57787;48.216;12.396;2023-03-26T20:10:02;7.30;77.90
70366;DHT22;57787;48.216;12.396;2023-03-26T20:12:51;7.30;77.70
70366;DHT22;57787;48.216;12.396;2023-03-26T20:15:27;7.20;78.20
70366;DHT22;57787;48.216;12.396;2023-03-26T20:18:04;7.20;78.10
70366;DHT22;57787;48.216;12.396;2023-03-26T20:20:31;7.20;78.40
70366;DHT22;57787;48.216;12.396;2023-03-26T20:22:59;7.20;78.30
70366;DHT22;57787;48.216;12.396;2023-03-26T20:25:29;7.20;78.20
70366;DHT22;57787;48.216;12.396;2023-03-26T20:27:57;7.20;78.20
70366;DHT22;57787;48.216;12.396;2023-03-26T20:30:24;7.20;78.30
70366;DHT22;57787;48.216;12.396;2023-03-26T20:32:54;7.10;78.50
70366;DHT22;57787;48.216;12.396;2023-03-26T20:35:39;7.10;78.40
70366;DHT22;57787;48.216;12.396;2023-03-26T20:38:08;7.10;78.20
70366;DHT22;57787;48.216;12.396;2023-03-26T20:40:37;7.10;78.30
70366;DHT22;57787;48.216;12.396;2023-03-26T20:43:07;7.00;78.50
70366;DHT22;57787;48.216;12.396;2023-03-26T20:45:35;7.00;78.70
70366;DHT22;57787;48.216;12.396;2023-03-26T20:48:01;6.90;78.70
70366;DHT22;57787;48.216;12.396;2023-03-26T20:50:28;6.90;78.50
70366;DHT22;57787;48.216;12.396;2023-03-26T20:52:57;6.90;78.60
70366;DHT22;57787;48.216;12.396;2023-03-26T20:55:26;6.90;78.90
70366;DHT22;57787;48.216;12.396;2023-03-26T20:57:53;6.80;78.60
70366;DHT22;57787;48.216;12.396;2023-03-26T21:00:20;6.80;78.80
70366;DHT22;57787;48.216;12.396;2023-03-26T21:02:52;6.80;78.60
70366;DHT22;57787;48.216;12.396;2023-03-26T21:05:20;6.80;78.90